Destinations Mikonos Airport

Mikonos Airport (LGMK / JMK)

Flights to Mikonos Airport

Flight number From ETE Dispatch
SPY-514 EHGG Groningen Airport Eelde 03:20

Flights from Mikonos Airport

Flight number To ETE Dispatch
SPY-515 EHGG Groningen Airport Eelde
About

Mikonos Airport facts

Mikonos Airport is located in Mykonos at an elevation of 123.4 meters or 405 feet.

Currently, Speedy Airlines serves 2 flights to and from Mikonos Airport.

Detailed airport info

Route map

Weather

Current weather

METAR

METAR

Metar data retrieved Sunday, 21 July 2024 at 18:55 UTC

LGMK 211820Z VRB03KT CAVOK 29/19 Q1007
Wind Temperature
3 kt 29c